sensor_id;sensor_type;location;lat;lon;timestamp;temperature;humidity
17174;DHT22;8702;48.130;-1.696;2023-05-10T00:01:16;12.30;99.90
17174;DHT22;8702;48.130;-1.696;2023-05-10T00:03:46;12.30;99.90
17174;DHT22;8702;48.130;-1.696;2023-05-10T00:06:13;12.30;99.90
17174;DHT22;8702;48.130;-1.696;2023-05-10T00:08:40;12.30;99.90
17174;DHT22;8702;48.130;-1.696;2023-05-10T00:11:08;12.30;99.90
17174;DHT22;8702;48.130;-1.696;2023-05-10T00:13:36;12.20;99.90
17174;DHT22;8702;48.130;-1.696;2023-05-10T00:16:04;12.20;99.90
17174;DHT22;8702;48.130;-1.696;2023-05-10T00:18:31;12.10;99.90
17174;DHT22;8702;48.130;-1.696;2023-05-10T00:20:58;12.10;99.90
17174;DHT22;8702;48.130;-1.696;2023-05-10T00:23:25;12.10;99.90
17174;DHT22;8702;48.130;-1.696;2023-05-10T00:25:52;12.00;99.90
17174;DHT22;8702;48.130;-1.696;2023-05-10T00:28:19;12.10;99.90
17174;DHT22;8702;48.130;-1.696;2023-05-10T00:30:48;12.10;99.90
17174;DHT22;8702;48.130;-1.696;2023-05-10T00:33:15;12.10;99.90
17174;DHT22;8702;48.130;-1.696;2023-05-10T00:35:45;12.10;99.90
17174;DHT22;8702;48.130;-1.696;2023-05-10T00:38:14;12.00;99.90
17174;DHT22;8702;48.130;-1.696;2023-05-10T00:40:41;12.00;99.90
17174;DHT22;8702;48.130;-1.696;2023-05-10T00:43:11;12.00;99.90
17174;DHT22;8702;48.130;-1.696;2023-05-10T00:45:39;12.00;99.90
17174;DHT22;8702;48.130;-1.696;2023-05-10T00:48:08;11.90;99.90
17174;DHT22;8702;48.130;-1.696;2023-05-10T00:50:36;11.90;99.90
17174;DHT22;8702;48.130;-1.696;2023-05-10T00:53:04;11.90;99.90
17174;DHT22;8702;48.130;-1.696;2023-05-10T00:55:32;11.80;99.90
17174;DHT22;8702;48.130;-1.696;2023-05-10T00:57:59;11.80;99.90
17174;DHT22;8702;48.130;-1.696;2023-05-10T01:00:27;11.80;99.90
17174;DHT22;8702;48.130;-1.696;2023-05-10T01:02:55;11.80;99.90
17174;DHT22;8702;48.130;-1.696;2023-05-10T01:05:24;11.80;99.90
17174;DHT22;8702;48.130;-1.696;2023-05-10T01:07:52;11.80;99.90
17174;DHT22;8702;48.130;-1.696;2023-05-10T01:10:19;11.80;99.90
17174;DHT22;8702;48.130;-1.696;2023-05-10T01:12:47;11.80;99.90
17174;DHT22;8702;48.130;-1.696;2023-05-10T01:15:18;11.80;99.90
17174;DHT22;8702;48.130;-1.696;2023-05-10T01:17:49;11.80;99.90
17174;DHT22;8702;48.130;-1.696;2023-05-10T01:20:18;11.80;99.90
17174;DHT22;8702;48.130;-1.696;2023-05-10T01:26:17;11.80;99.90
17174;DHT22;8702;48.130;-1.696;2023-05-10T01:29:13;11.70;99.90
17174;DHT22;8702;48.130;-1.696;2023-05-10T01:32:26;11.80;99.90
17174;DHT22;8702;48.130;-1.696;2023-05-10T01:35:00;11.70;99.90
17174;DHT22;8702;48.130;-1.696;2023-05-10T01:37:34;11.70;99.90
17174;DHT22;8702;48.130;-1.696;2023-05-10T01:40:09;11.80;99.90
17174;DHT22;8702;48.130;-1.696;2023-05-10T01:42:42;11.70;99.90
17174;DHT22;8702;48.130;-1.696;2023-05-10T01:45:20;11.70;99.90
17174;DHT22;8702;48.130;-1.696;2023-05-10T01:48:05;11.60;99.90
17174;DHT22;8702;48.130;-1.696;2023-05-10T01:50:35;11.60;99.90
17174;DHT22;8702;48.130;-1.696;2023-05-10T01:53:06;11.60;99.90
17174;DHT22;8702;48.130;-1.696;2023-05-10T01:55:41;11.50;99.90
17174;DHT22;8702;48.130;-1.696;2023-05-10T01:58:13;11.60;99.90
17174;DHT22;8702;48.130;-1.696;2023-05-10T02:00:42;11.50;99.90
17174;DHT22;8702;48.130;-1.696;2023-05-10T02:03:11;11.60;99.90
17174;DHT22;8702;48.130;-1.696;2023-05-10T02:05:41;11.60;99.90
17174;DHT22;8702;48.130;-1.696;2023-05-10T02:08:11;11.60;99.90
17174;DHT22;8702;48.130;-1.696;2023-05-10T02:10:39;11.70;99.90
17174;DHT22;8702;48.130;-1.696;2023-05-10T02:13:07;11.70;99.90
17174;DHT22;8702;48.130;-1.696;2023-05-10T02:15:36;11.60;99.90
17174;DHT22;8702;48.130;-1.696;2023-05-10T02:18:04;11.60;99.90
17174;DHT22;8702;48.130;-1.696;2023-05-10T02:20:48;11.70;99.90
17174;DHT22;8702;48.130;-1.696;2023-05-10T02:23:16;11.70;99.90
17174;DHT22;8702;48.130;-1.696;2023-05-10T02:25:45;11.50;99.90
17174;DHT22;8702;48.130;-1.696;2023-05-10T02:28:14;11.60;99.90
17174;DHT22;8702;48.130;-1.696;2023-05-10T02:30:43;11.60;99.90
17174;DHT22;8702;48.130;-1.696;2023-05-10T02:33:13;11.50;99.90
17174;DHT22;8702;48.130;-1.696;2023-05-10T02:35:42;11.50;99.90
17174;DHT22;8702;48.130;-1.696;2023-05-10T02:38:11;11.50;99.90
17174;DHT22;8702;48.130;-1.696;2023-05-10T02:40:41;11.60;99.90
17174;DHT22;8702;48.130;-1.696;2023-05-10T02:43:12;11.50;99.90
17174;DHT22;8702;48.130;-1.696;2023-05-10T02:45:40;11.50;99.90
17174;DHT22;8702;48.130;-1.696;2023-05-10T02:48:08;11.50;99.90
17174;DHT22;8702;48.130;-1.696;2023-05-10T02:50:36;11.50;99.90
17174;DHT22;8702;48.130;-1.696;2023-05-10T02:53:09;11.40;99.90
17174;DHT22;8702;48.130;-1.696;2023-05-10T02:55:40;11.40;99.90
17174;DHT22;8702;48.130;-1.696;2023-05-10T02:58:07;11.40;99.90
17174;DHT22;8702;48.130;-1.696;2023-05-10T03:00:34;11.40;99.90
17174;DHT22;8702;48.130;-1.696;2023-05-10T03:03:02;11.50;99.90
17174;DHT22;8702;48.130;-1.696;2023-05-10T03:05:29;11.50;99.90
17174;DHT22;8702;48.130;-1.696;2023-05-10T03:07:56;11.60;99.90
17174;DHT22;8702;48.130;-1.696;2023-05-10T03:10:27;11.50;99.90
17174;DHT22;8702;48.130;-1.696;2023-05-10T03:13:05;11.60;99.90
17174;DHT22;8702;48.130;-1.696;2023-05-10T03:15:40;11.50;99.90
17174;DHT22;8702;48.130;-1.696;2023-05-10T03:18:16;11.40;99.90
17174;DHT22;8702;48.130;-1.696;2023-05-10T03:20:48;11.40;99.90
17174;DHT22;8702;48.130;-1.696;2023-05-10T03:23:21;11.40;99.90
17174;DHT22;8702;48.130;-1.696;2023-05-10T03:25:52;11.40;99.90
17174;DHT22;8702;48.130;-1.696;2023-05-10T03:28:21;11.30;99.90
17174;DHT22;8702;48.130;-1.696;2023-05-10T03:30:49;11.30;99.90
17174;DHT22;8702;48.130;-1.696;2023-05-10T03:33:16;11.30;99.90
17174;DHT22;8702;48.130;-1.696;2023-05-10T03:35:47;11.20;99.90
17174;DHT22;8702;48.130;-1.696;2023-05-10T03:38:14;11.10;99.90
17174;DHT22;8702;48.130;-1.696;2023-05-10T03:40:41;11.20;99.90
17174;DHT22;8702;48.130;-1.696;2023-05-10T03:43:13;11.10;99.90
17174;DHT22;8702;48.130;-1.696;2023-05-10T03:45:40;11.20;99.90
17174;DHT22;8702;48.130;-1.696;2023-05-10T03:48:08;11.30;99.90
17174;DHT22;8702;48.130;-1.696;2023-05-10T03:50:35;11.30;99.90
17174;DHT22;8702;48.130;-1.696;2023-05-10T03:53:02;11.30;99.90
17174;DHT22;8702;48.130;-1.696;2023-05-10T03:55:29;11.40;99.90
17174;DHT22;8702;48.130;-1.696;2023-05-10T03:58:00;11.40;99.90
17174;DHT22;8702;48.130;-1.696;2023-05-10T04:00:28;11.30;99.90
17174;DHT22;8702;48.130;-1.696;2023-05-10T04:02:55;11.30;99.90
17174;DHT22;8702;48.130;-1.696;2023-05-10T04:05:22;11.30;99.90
17174;DHT22;8702;48.130;-1.696;2023-05-10T04:07:49;11.30;99.90
17174;DHT22;8702;48.130;-1.696;2023-05-10T04:10:16;11.20;99.90
17174;DHT22;8702;48.130;-1.696;2023-05-10T04:12:43;11.30;99.90
17174;DHT22;8702;48.130;-1.696;2023-05-10T04:15:12;11.30;99.90
17174;DHT22;8702;48.130;-1.696;2023-05-10T04:17:43;11.30;99.90
17174;DHT22;8702;48.130;-1.696;2023-05-10T04:20:11;11.20;99.90
17174;DHT22;8702;48.130;-1.696;2023-05-10T04:22:38;11.40;99.90
17174;DHT22;8702;48.130;-1.696;2023-05-10T04:25:06;11.40;99.90
17174;DHT22;8702;48.130;-1.696;2023-05-10T04:27:33;11.40;99.90
17174;DHT22;8702;48.130;-1.696;2023-05-10T04:30:00;11.40;99.90
17174;DHT22;8702;48.130;-1.696;2023-05-10T04:32:27;11.40;99.90
17174;DHT22;8702;48.130;-1.696;2023-05-10T04:37:24;11.30;99.90
17174;DHT22;8702;48.130;-1.696;2023-05-10T04:39:51;11.50;99.90
17174;DHT22;8702;48.130;-1.696;2023-05-10T04:42:18;11.50;99.90
17174;DHT22;8702;48.130;-1.696;2023-05-10T04:44:45;11.50;99.90
17174;DHT22;8702;48.130;-1.696;2023-05-10T04:47:12;11.60;99.90
17174;DHT22;8702;48.130;-1.696;2023-05-10T04:49:39;11.50;99.90
17174;DHT22;8702;48.130;-1.696;2023-05-10T04:52:07;11.60;99.90
17174;DHT22;8702;48.130;-1.696;2023-05-10T04:54:34;11.60;99.90
17174;DHT22;8702;48.130;-1.696;2023-05-10T04:57:01;11.70;99.90
17174;DHT22;8702;48.130;-1.696;2023-05-10T04:59:28;11.60;99.90
17174;DHT22;8702;48.130;-1.696;2023-05-10T05:01:55;11.70;99.90
17174;DHT22;8702;48.130;-1.696;2023-05-10T05:04:22;11.70;99.90
17174;DHT22;8702;48.130;-1.696;2023-05-10T05:06:49;11.60;99.90
17174;DHT22;8702;48.130;-1.696;2023-05-10T05:09:18;11.60;99.90
17174;DHT22;8702;48.130;-1.696;2023-05-10T05:11:44;11.60;99.90
17174;DHT22;8702;48.130;-1.696;2023-05-10T05:14:13;11.50;99.90
17174;DHT22;8702;48.130;-1.696;2023-05-10T05:16:40;11.50;99.90
17174;DHT22;8702;48.130;-1.696;2023-05-10T05:19:07;11.60;99.90
17174;DHT22;8702;48.130;-1.696;2023-05-10T05:21:34;11.50;99.90
17174;DHT22;8702;48.130;-1.696;2023-05-10T05:24:01;11.60;99.90
17174;DHT22;8702;48.130;-1.696;2023-05-10T05:26:29;11.70;99.90
17174;DHT22;8702;48.130;-1.696;2023-05-10T05:28:56;11.60;99.90
17174;DHT22;8702;48.130;-1.696;2023-05-10T05:31:23;11.60;99.90
17174;DHT22;8702;48.130;-1.696;2023-05-10T05:36:18;11.70;99.90
17174;DHT22;8702;48.130;-1.696;2023-05-10T05:38:45;11.70;99.90
17174;DHT22;8702;48.130;-1.696;2023-05-10T05:41:12;11.80;99.90
17174;DHT22;8702;48.130;-1.696;2023-05-10T05:43:40;11.90;99.90
17174;DHT22;8702;48.130;-1.696;2023-05-10T05:46:07;11.90;99.90
17174;DHT22;8702;48.130;-1.696;2023-05-10T05:48:34;11.90;99.90
17174;DHT22;8702;48.130;-1.696;2023-05-10T05:51:01;11.90;99.90
17174;DHT22;8702;48.130;-1.696;2023-05-10T05:53:28;11.90;99.90
17174;DHT22;8702;48.130;-1.696;2023-05-10T05:55:55;11.90;99.90
17174;DHT22;8702;48.130;-1.696;2023-05-10T06:00:51;12.00;99.90
17174;DHT22;8702;48.130;-1.696;2023-05-10T06:03:18;12.00;99.90
17174;DHT22;8702;48.130;-1.696;2023-05-10T06:05:45;12.00;99.90
17174;DHT22;8702;48.130;-1.696;2023-05-10T06:08:12;12.10;99.90
17174;DHT22;8702;48.130;-1.696;2023-05-10T06:10:39;12.10;99.90
17174;DHT22;8702;48.130;-1.696;2023-05-10T06:13:06;12.10;99.90
17174;DHT22;8702;48.130;-1.696;2023-05-10T06:15:33;12.10;99.90
17174;DHT22;8702;48.130;-1.696;2023-05-10T06:18:01;12.00;99.90
17174;DHT22;8702;48.130;-1.696;2023-05-10T06:20:29;11.90;99.90
17174;DHT22;8702;48.130;-1.696;2023-05-10T06:22:57;12.10;99.90
17174;DHT22;8702;48.130;-1.696;2023-05-10T06:25:24;12.10;99.90
17174;DHT22;8702;48.130;-1.696;2023-05-10T06:27:51;12.10;99.90
17174;DHT22;8702;48.130;-1.696;2023-05-10T06:30:23;12.20;99.90
17174;DHT22;8702;48.130;-1.696;2023-05-10T06:32:52;12.20;99.90
17174;DHT22;8702;48.130;-1.696;2023-05-10T06:35:21;12.20;99.90
17174;DHT22;8702;48.130;-1.696;2023-05-10T06:37:48;12.20;99.90
17174;DHT22;8702;48.130;-1.696;2023-05-10T06:40:16;12.20;99.90
17174;DHT22;8702;48.130;-1.696;2023-05-10T06:42:43;12.20;99.90
17174;DHT22;8702;48.130;-1.696;2023-05-10T06:45:10;12.30;99.90
17174;DHT22;8702;48.130;-1.696;2023-05-10T06:47:38;12.30;99.90
17174;DHT22;8702;48.130;-1.696;2023-05-10T06:50:06;12.30;99.90
17174;DHT22;8702;48.130;-1.696;2023-05-10T06:52:34;12.40;99.90
17174;DHT22;8702;48.130;-1.696;2023-05-10T06:55:01;12.50;99.90
17174;DHT22;8702;48.130;-1.696;2023-05-10T06:57:29;12.50;99.90
17174;DHT22;8702;48.130;-1.696;2023-05-10T06:59:56;12.60;99.90
17174;DHT22;8702;48.130;-1.696;2023-05-10T07:02:23;12.60;99.90
17174;DHT22;8702;48.130;-1.696;2023-05-10T07:04:50;12.70;99.90
17174;DHT22;8702;48.130;-1.696;2023-05-10T07:07:17;12.80;99.90
17174;DHT22;8702;48.130;-1.696;2023-05-10T07:09:46;12.80;99.90
17174;DHT22;8702;48.130;-1.696;2023-05-10T07:12:13;12.80;99.90
17174;DHT22;8702;48.130;-1.696;2023-05-10T07:14:40;12.90;99.90
17174;DHT22;8702;48.130;-1.696;2023-05-10T07:17:07;12.90;99.90
17174;DHT22;8702;48.130;-1.696;2023-05-10T07:19:34;12.90;99.90
17174;DHT22;8702;48.130;-1.696;2023-05-10T07:22:01;13.00;99.90
17174;DHT22;8702;48.130;-1.696;2023-05-10T07:24:28;13.00;99.90
17174;DHT22;8702;48.130;-1.696;2023-05-10T07:26:56;13.00;99.90
17174;DHT22;8702;48.130;-1.696;2023-05-10T07:29:24;13.00;99.90
17174;DHT22;8702;48.130;-1.696;2023-05-10T07:31:51;13.00;99.90
17174;DHT22;8702;48.130;-1.696;2023-05-10T07:34:18;13.00;99.90
17174;DHT22;8702;48.130;-1.696;2023-05-10T07:36:46;13.10;99.90
17174;DHT22;8702;48.130;-1.696;2023-05-10T07:39:13;13.20;99.90
17174;DHT22;8702;48.130;-1.696;2023-05-10T07:41:40;13.30;99.90
17174;DHT22;8702;48.130;-1.696;2023-05-10T07:44:08;13.30;99.90
17174;DHT22;8702;48.130;-1.696;2023-05-10T07:46:35;13.30;99.90
17174;DHT22;8702;48.130;-1.696;2023-05-10T07:49:02;13.30;99.90
17174;DHT22;8702;48.130;-1.696;2023-05-10T07:51:29;13.40;99.90
17174;DHT22;8702;48.130;-1.696;2023-05-10T07:53:57;13.50;99.90
17174;DHT22;8702;48.130;-1.696;2023-05-10T07:56:26;13.40;99.90
17174;DHT22;8702;48.130;-1.696;2023-05-10T07:58:55;13.30;99.90
17174;DHT22;8702;48.130;-1.696;2023-05-10T08:01:24;13.20;99.90
17174;DHT22;8702;48.130;-1.696;2023-05-10T08:03:53;13.10;99.90
17174;DHT22;8702;48.130;-1.696;2023-05-10T08:06:20;13.20;99.90
17174;DHT22;8702;48.130;-1.696;2023-05-10T08:08:48;13.20;99.90
17174;DHT22;8702;48.130;-1.696;2023-05-10T08:11:16;13.30;99.90
17174;DHT22;8702;48.130;-1.696;2023-05-10T08:13:43;13.30;99.90
17174;DHT22;8702;48.130;-1.696;2023-05-10T08:16:10;13.50;99.90
17174;DHT22;8702;48.130;-1.696;2023-05-10T08:18:39;13.50;99.90
17174;DHT22;8702;48.130;-1.696;2023-05-10T08:21:06;13.50;99.90
17174;DHT22;8702;48.130;-1.696;2023-05-10T08:23:33;13.50;99.90
17174;DHT22;8702;48.130;-1.696;2023-05-10T08:26:00;13.60;99.90
17174;DHT22;8702;48.130;-1.696;2023-05-10T08:28:29;13.60;99.90
17174;DHT22;8702;48.130;-1.696;2023-05-10T08:30:56;13.80;99.90
17174;DHT22;8702;48.130;-1.696;2023-05-10T08:33:23;13.80;99.90
17174;DHT22;8702;48.130;-1.696;2023-05-10T08:35:51;13.80;99.90
17174;DHT22;8702;48.130;-1.696;2023-05-10T08:38:18;13.80;99.90
17174;DHT22;8702;48.130;-1.696;2023-05-10T08:40:47;13.80;99.90
17174;DHT22;8702;48.130;-1.696;2023-05-10T08:43:16;13.80;99.90
17174;DHT22;8702;48.130;-1.696;2023-05-10T08:45:44;13.90;99.90
17174;DHT22;8702;48.130;-1.696;2023-05-10T08:48:12;14.10;99.90
17174;DHT22;8702;48.130;-1.696;2023-05-10T08:50:41;14.10;99.90
17174;DHT22;8702;48.130;-1.696;2023-05-10T08:53:12;14.10;99.90
17174;DHT22;8702;48.130;-1.696;2023-05-10T08:55:40;14.10;99.90
17174;DHT22;8702;48.130;-1.696;2023-05-10T08:58:09;14.20;99.90
17174;DHT22;8702;48.130;-1.696;2023-05-10T09:00:36;14.30;99.90
17174;DHT22;8702;48.130;-1.696;2023-05-10T09:03:04;14.20;99.90
17174;DHT22;8702;48.130;-1.696;2023-05-10T09:05:32;14.10;99.90
17174;DHT22;8702;48.130;-1.696;2023-05-10T09:07:59;14.10;99.90
17174;DHT22;8702;48.130;-1.696;2023-05-10T09:10:29;14.10;99.90
17174;DHT22;8702;48.130;-1.696;2023-05-10T09:12:57;14.10;99.90
17174;DHT22;8702;48.130;-1.696;2023-05-10T09:15:24;14.20;99.90
17174;DHT22;8702;48.130;-1.696;2023-05-10T09:17:51;14.10;99.90
17174;DHT22;8702;48.130;-1.696;2023-05-10T09:20:18;14.20;99.90
17174;DHT22;8702;48.130;-1.696;2023-05-10T09:22:46;14.20;99.90
17174;DHT22;8702;48.130;-1.696;2023-05-10T09:25:14;14.30;99.90
17174;DHT22;8702;48.130;-1.696;2023-05-10T09:27:45;14.30;99.90
17174;DHT22;8702;48.130;-1.696;2023-05-10T09:30:16;14.30;99.90
17174;DHT22;8702;48.130;-1.696;2023-05-10T09:32:44;14.40;99.90
17174;DHT22;8702;48.130;-1.696;2023-05-10T09:35:12;14.50;99.90
17174;DHT22;8702;48.130;-1.696;2023-05-10T09:37:40;14.50;99.90
17174;DHT22;8702;48.130;-1.696;2023-05-10T09:40:11;14.50;99.90
17174;DHT22;8702;48.130;-1.696;2023-05-10T09:42:39;14.50;99.90
17174;DHT22;8702;48.130;-1.696;2023-05-10T09:45:10;14.60;99.90
17174;DHT22;8702;48.130;-1.696;2023-05-10T09:47:37;14.60;99.90
17174;DHT22;8702;48.130;-1.696;2023-05-10T09:50:05;14.50;99.90
17174;DHT22;8702;48.130;-1.696;2023-05-10T09:52:46;14.50;99.90
17174;DHT22;8702;48.130;-1.696;2023-05-10T09:55:14;14.70;99.90
17174;DHT22;8702;48.130;-1.696;2023-05-10T09:57:41;14.80;99.90
17174;DHT22;8702;48.130;-1.696;2023-05-10T10:00:10;14.90;99.90
17174;DHT22;8702;48.130;-1.696;2023-05-10T10:02:43;14.90;99.90
17174;DHT22;8702;48.130;-1.696;2023-05-10T10:05:11;15.10;99.90
17174;DHT22;8702;48.130;-1.696;2023-05-10T10:07:38;15.20;99.90
17174;DHT22;8702;48.130;-1.696;2023-05-10T10:10:06;15.30;99.90
17174;DHT22;8702;48.130;-1.696;2023-05-10T10:12:37;15.20;99.90
17174;DHT22;8702;48.130;-1.696;2023-05-10T10:15:05;15.20;99.90
17174;DHT22;8702;48.130;-1.696;2023-05-10T10:17:35;15.10;99.90
17174;DHT22;8702;48.130;-1.696;2023-05-10T10:20:04;15.30;99.90
17174;DHT22;8702;48.130;-1.696;2023-05-10T10:22:31;15.30;99.90
17174;DHT22;8702;48.130;-1.696;2023-05-10T10:24:58;15.50;99.90
17174;DHT22;8702;48.130;-1.696;2023-05-10T10:27:35;15.40;99.90
17174;DHT22;8702;48.130;-1.696;2023-05-10T10:30:13;15.30;99.90
17174;DHT22;8702;48.130;-1.696;2023-05-10T10:33:01;15.30;99.90
17174;DHT22;8702;48.130;-1.696;2023-05-10T10:35:33;15.40;99.90
17174;DHT22;8702;48.130;-1.696;2023-05-10T10:38:00;15.30;99.90
17174;DHT22;8702;48.130;-1.696;2023-05-10T10:40:31;15.40;99.90
17174;DHT22;8702;48.130;-1.696;2023-05-10T10:43:21;15.50;99.90
17174;DHT22;8702;48.130;-1.696;2023-05-10T10:46:09;15.60;99.90
17174;DHT22;8702;48.130;-1.696;2023-05-10T10:48:38;15.50;99.90
17174;DHT22;8702;48.130;-1.696;2023-05-10T10:51:05;15.30;99.90
17174;DHT22;8702;48.130;-1.696;2023-05-10T10:53:32;15.40;99.90
17174;DHT22;8702;48.130;-1.696;2023-05-10T10:56:05;15.40;99.90
17174;DHT22;8702;48.130;-1.696;2023-05-10T10:58:33;15.50;99.90
17174;DHT22;8702;48.130;-1.696;2023-05-10T11:01:14;15.50;99.90
17174;DHT22;8702;48.130;-1.696;2023-05-10T11:04:18;15.60;99.90
17174;DHT22;8702;48.130;-1.696;2023-05-10T11:06:45;15.40;99.90
17174;DHT22;8702;48.130;-1.696;2023-05-10T11:09:12;15.50;99.90
17174;DHT22;8702;48.130;-1.696;2023-05-10T11:11:50;15.60;99.90
17174;DHT22;8702;48.130;-1.696;2023-05-10T11:14:20;15.60;99.90
17174;DHT22;8702;48.130;-1.696;2023-05-10T11:16:47;15.50;99.90
17174;DHT22;8702;48.130;-1.696;2023-05-10T11:19:17;15.40;99.90
17174;DHT22;8702;48.130;-1.696;2023-05-10T11:21:45;15.30;99.90
17174;DHT22;8702;48.130;-1.696;2023-05-10T11:24:18;15.20;99.90
17174;DHT22;8702;48.130;-1.696;2023-05-10T11:26:45;15.10;99.90
17174;DHT22;8702;48.130;-1.696;2023-05-10T11:29:13;15.10;99.90
17174;DHT22;8702;48.130;-1.696;2023-05-10T11:31:43;15.20;99.90
17174;DHT22;8702;48.130;-1.696;2023-05-10T11:34:23;15.10;99.90
17174;DHT22;8702;48.130;-1.696;2023-05-10T11:36:51;15.00;99.90
17174;DHT22;8702;48.130;-1.696;2023-05-10T11:39:19;15.10;99.90
17174;DHT22;8702;48.130;-1.696;2023-05-10T11:41:48;15.20;99.90
17174;DHT22;8702;48.130;-1.696;2023-05-10T11:44:15;15.30;99.90
17174;DHT22;8702;48.130;-1.696;2023-05-10T11:46:42;15.60;99.90
17174;DHT22;8702;48.130;-1.696;2023-05-10T11:49:10;15.60;99.90
17174;DHT22;8702;48.130;-1.696;2023-05-10T11:51:40;15.90;99.90
17174;DHT22;8702;48.130;-1.696;2023-05-10T11:54:10;15.90;99.90
17174;DHT22;8702;48.130;-1.696;2023-05-10T11:56:38;15.90;99.90
17174;DHT22;8702;48.130;-1.696;2023-05-10T11:59:05;15.60;99.90
17174;DHT22;8702;48.130;-1.696;2023-05-10T12:01:32;15.40;99.90
17174;DHT22;8702;48.130;-1.696;2023-05-10T12:03:59;15.50;99.90
17174;DHT22;8702;48.130;-1.696;2023-05-10T12:06:28;15.70;99.90
17174;DHT22;8702;48.130;-1.696;2023-05-10T12:08:58;15.80;99.90
17174;DHT22;8702;48.130;-1.696;2023-05-10T12:11:27;15.90;99.90
17174;DHT22;8702;48.130;-1.696;2023-05-10T12:13:54;15.90;99.90
17174;DHT22;8702;48.130;-1.696;2023-05-10T12:16:23;15.80;99.90
17174;DHT22;8702;48.130;-1.696;2023-05-10T12:18:51;15.80;99.90
17174;DHT22;8702;48.130;-1.696;2023-05-10T12:21:19;15.90;99.90
17174;DHT22;8702;48.130;-1.696;2023-05-10T12:26:17;15.90;99.90
17174;DHT22;8702;48.130;-1.696;2023-05-10T12:28:44;15.70;99.90
17174;DHT22;8702;48.130;-1.696;2023-05-10T12:31:11;15.80;99.90
17174;DHT22;8702;48.130;-1.696;2023-05-10T12:33:39;15.80;99.90
17174;DHT22;8702;48.130;-1.696;2023-05-10T12:36:08;15.50;99.90
17174;DHT22;8702;48.130;-1.696;2023-05-10T12:38:37;15.40;99.90
17174;DHT22;8702;48.130;-1.696;2023-05-10T12:41:06;15.40;99.90
17174;DHT22;8702;48.130;-1.696;2023-05-10T12:43:35;15.40;99.90
17174;DHT22;8702;48.130;-1.696;2023-05-10T12:46:06;15.50;99.90
17174;DHT22;8702;48.130;-1.696;2023-05-10T12:48:33;15.50;99.90
17174;DHT22;8702;48.130;-1.696;2023-05-10T12:51:00;15.40;99.90
17174;DHT22;8702;48.130;-1.696;2023-05-10T12:53:27;15.40;99.90
17174;DHT22;8702;48.130;-1.696;2023-05-10T12:55:55;15.60;99.90
17174;DHT22;8702;48.130;-1.696;2023-05-10T12:58:22;15.70;99.90
17174;DHT22;8702;48.130;-1.696;2023-05-10T13:00:50;15.80;99.90
17174;DHT22;8702;48.130;-1.696;2023-05-10T13:03:18;15.90;99.90
17174;DHT22;8702;48.130;-1.696;2023-05-10T13:08:12;16.10;99.90
17174;DHT22;8702;48.130;-1.696;2023-05-10T13:10:39;15.90;99.90
17174;DHT22;8702;48.130;-1.696;2023-05-10T13:13:07;15.90;99.90
17174;DHT22;8702;48.130;-1.696;2023-05-10T13:15:34;15.90;99.90
17174;DHT22;8702;48.130;-1.696;2023-05-10T13:18:02;15.80;99.90
17174;DHT22;8702;48.130;-1.696;2023-05-10T13:20:33;15.90;99.90
17174;DHT22;8702;48.130;-1.696;2023-05-10T13:22:59;15.90;99.90
17174;DHT22;8702;48.130;-1.696;2023-05-10T13:25:28;16.00;99.90
17174;DHT22;8702;48.130;-1.696;2023-05-10T13:27:55;16.00;99.90
17174;DHT22;8702;48.130;-1.696;2023-05-10T13:30:22;16.00;99.90
17174;DHT22;8702;48.130;-1.696;2023-05-10T13:32:49;16.10;99.90
17174;DHT22;8702;48.130;-1.696;2023-05-10T13:35:17;16.10;99.90
17174;DHT22;8702;48.130;-1.696;2023-05-10T13:37:44;16.00;99.90
17174;DHT22;8702;48.130;-1.696;2023-05-10T13:40:11;15.90;99.90
17174;DHT22;8702;48.130;-1.696;2023-05-10T13:42:39;15.50;99.90
17174;DHT22;8702;48.130;-1.696;2023-05-10T13:45:07;14.90;99.90
17174;DHT22;8702;48.130;-1.696;2023-05-10T13:47:34;14.70;99.90
17174;DHT22;8702;48.130;-1.696;2023-05-10T13:50:01;14.50;99.90
17174;DHT22;8702;48.130;-1.696;2023-05-10T13:52:30;14.30;99.90
17174;DHT22;8702;48.130;-1.696;2023-05-10T13:54:57;14.20;99.90
17174;DHT22;8702;48.130;-1.696;2023-05-10T13:57:24;14.10;99.90
17174;DHT22;8702;48.130;-1.696;2023-05-10T13:59:55;14.20;99.90
17174;DHT22;8702;48.130;-1.696;2023-05-10T14:02:22;14.30;99.90
17174;DHT22;8702;48.130;-1.696;2023-05-10T14:04:50;14.40;99.90
17174;DHT22;8702;48.130;-1.696;2023-05-10T14:07:17;14.60;99.90
17174;DHT22;8702;48.130;-1.696;2023-05-10T14:09:45;14.70;99.90
17174;DHT22;8702;48.130;-1.696;2023-05-10T14:12:12;14.80;99.90
17174;DHT22;8702;48.130;-1.696;2023-05-10T14:14:40;15.00;99.90
17174;DHT22;8702;48.130;-1.696;2023-05-10T14:17:07;15.10;99.90
17174;DHT22;8702;48.130;-1.696;2023-05-10T14:19:33;15.50;99.90
17174;DHT22;8702;48.130;-1.696;2023-05-10T14:22:00;15.70;99.90
17174;DHT22;8702;48.130;-1.696;2023-05-10T14:24:28;15.80;99.90
17174;DHT22;8702;48.130;-1.696;2023-05-10T14:26:56;16.00;99.90
17174;DHT22;8702;48.130;-1.696;2023-05-10T14:29:24;16.20;99.90
17174;DHT22;8702;48.130;-1.696;2023-05-10T14:31:51;16.10;99.90
17174;DHT22;8702;48.130;-1.696;2023-05-10T14:34:18;16.10;99.90
17174;DHT22;8702;48.130;-1.696;2023-05-10T14:36:45;16.10;99.90
17174;DHT22;8702;48.130;-1.696;2023-05-10T14:39:12;16.10;99.90
17174;DHT22;8702;48.130;-1.696;2023-05-10T14:41:39;16.20;99.90
17174;DHT22;8702;48.130;-1.696;2023-05-10T14:44:09;16.20;99.90
17174;DHT22;8702;48.130;-1.696;2023-05-10T14:46:36;16.20;99.90
17174;DHT22;8702;48.130;-1.696;2023-05-10T14:49:04;16.20;99.90
17174;DHT22;8702;48.130;-1.696;2023-05-10T14:51:31;16.20;99.90
17174;DHT22;8702;48.130;-1.696;2023-05-10T14:53:57;16.30;99.90
17174;DHT22;8702;48.130;-1.696;2023-05-10T14:56:25;16.30;99.90
17174;DHT22;8702;48.130;-1.696;2023-05-10T14:58:53;16.30;99.90
17174;DHT22;8702;48.130;-1.696;2023-05-10T15:01:21;16.40;99.90
17174;DHT22;8702;48.130;-1.696;2023-05-10T15:03:48;16.40;99.90
17174;DHT22;8702;48.130;-1.696;2023-05-10T15:06:16;16.40;99.90
17174;DHT22;8702;48.130;-1.696;2023-05-10T15:08:43;16.50;99.90
17174;DHT22;8702;48.130;-1.696;2023-05-10T15:11:09;16.40;99.90
17174;DHT22;8702;48.130;-1.696;2023-05-10T15:13:36;16.50;99.90
17174;DHT22;8702;48.130;-1.696;2023-05-10T15:16:04;16.60;99.90
17174;DHT22;8702;48.130;-1.696;2023-05-10T15:18:32;16.80;99.90
17174;DHT22;8702;48.130;-1.696;2023-05-10T15:20:59;16.80;99.90
17174;DHT22;8702;48.130;-1.696;2023-05-10T15:23:26;16.90;99.90
17174;DHT22;8702;48.130;-1.696;2023-05-10T15:25:54;16.80;99.90
17174;DHT22;8702;48.130;-1.696;2023-05-10T15:28:21;16.90;99.90
17174;DHT22;8702;48.130;-1.696;2023-05-10T15:30:48;16.80;99.90
17174;DHT22;8702;48.130;-1.696;2023-05-10T15:33:15;16.90;99.90
17174;DHT22;8702;48.130;-1.696;2023-05-10T15:35:43;17.00;99.90
17174;DHT22;8702;48.130;-1.696;2023-05-10T15:38:13;17.00;99.90
17174;DHT22;8702;48.130;-1.696;2023-05-10T15:40:40;17.10;99.90
17174;DHT22;8702;48.130;-1.696;2023-05-10T15:43:07;16.90;99.90
17174;DHT22;8702;48.130;-1.696;2023-05-10T15:48:04;16.40;99.90
17174;DHT22;8702;48.130;-1.696;2023-05-10T15:52:59;16.20;99.90
17174;DHT22;8702;48.130;-1.696;2023-05-10T16:00:22;16.00;99.90
17174;DHT22;8702;48.130;-1.696;2023-05-10T16:02:51;16.00;99.90
17174;DHT22;8702;48.130;-1.696;2023-05-10T16:05:19;16.00;99.90